createdAt,value
2017-12-26T00:01:33.255Z,2.93
2017-12-26T00:04:01.941Z,3.02
2017-12-26T00:06:30.981Z,2.91
2017-12-26T00:09:00.441Z,2.97
2017-12-26T00:11:29.063Z,2.86
2017-12-26T00:13:58.585Z,2.82
2017-12-26T00:16:27.311Z,2.86
2017-12-26T00:18:55.897Z,2.70
2017-12-26T00:21:24.961Z,2.52
2017-12-26T00:23:53.675Z,2.43
2017-12-26T00:26:22.362Z,2.28
2017-12-26T00:28:51.157Z,2.16
2017-12-26T00:31:19.780Z,2.05
2017-12-26T00:33:49.241Z,2.10
2017-12-26T00:36:18.026Z,2.11
2017-12-26T00:38:46.711Z,2.21
2017-12-26T00:41:15.354Z,2.35
2017-12-26T00:43:44.246Z,2.33
2017-12-26T00:46:13.691Z,2.50
2017-12-26T00:48:42.375Z,2.36
2017-12-26T00:51:11.271Z,2.55
2017-12-26T00:53:39.895Z,2.51
2017-12-26T00:56:09.257Z,2.40
2017-12-26T00:58:38.204Z,2.42
2017-12-26T01:01:07.649Z,2.44
2017-12-26T01:03:36.313Z,2.29
2017-12-26T01:06:05.078Z,2.23
2017-12-26T01:08:34.529Z,2.60
2017-12-26T01:11:03.167Z,2.93
2017-12-26T01:13:32.656Z,3.09
2017-12-26T01:16:02.123Z,3.35
2017-12-26T01:18:30.700Z,3.28
2017-12-26T01:20:59.312Z,2.99
2017-12-26T01:23:27.871Z,2.79
2017-12-26T01:25:56.557Z,2.66
2017-12-26T01:28:25.243Z,2.52
2017-12-26T01:30:53.884Z,2.48
2017-12-26T01:33:22.615Z,2.48
2017-12-26T01:35:51.670Z,2.57
2017-12-26T01:38:20.337Z,2.82
2017-12-26T01:40:49.754Z,2.93
2017-12-26T01:43:19.247Z,2.78
2017-12-26T01:45:48.713Z,2.65
2017-12-26T01:48:17.252Z,2.62
2017-12-26T01:50:45.971Z,2.77
2017-12-26T01:53:14.657Z,2.80
2017-12-26T01:55:43.310Z,2.79
2017-12-26T01:58:12.336Z,2.89
2017-12-26T02:00:41.068Z,2.94
2017-12-26T02:03:10.464Z,2.89
2017-12-26T02:05:39.979Z,2.76
2017-12-26T02:08:09.439Z,2.63
2017-12-26T02:10:39.868Z,2.48
2017-12-26T02:13:08.473Z,2.32
2017-12-26T02:15:37.129Z,2.15
2017-12-26T02:18:05.816Z,2.11
2017-12-26T02:20:34.788Z,2.14
2017-12-26T02:23:03.501Z,2.05
2017-12-26T02:25:32.084Z,1.98
2017-12-26T02:28:01.076Z,1.87
2017-12-26T02:30:29.812Z,1.83
2017-12-26T02:32:59.269Z,1.84
2017-12-26T02:35:28.054Z,1.80
2017-12-26T02:37:56.741Z,1.80
2017-12-26T02:40:25.425Z,1.88
2017-12-26T02:42:54.200Z,1.94
2017-12-26T02:45:22.894Z,1.80
2017-12-26T02:47:51.533Z,1.82
2017-12-26T02:50:21.026Z,2.17
2017-12-26T02:52:50.489Z,1.79
2017-12-26T02:55:19.136Z,1.52
2017-12-26T02:57:47.900Z,1.37
2017-12-26T03:00:16.592Z,1.25
2017-12-26T03:02:46.055Z,1.16
2017-12-26T03:05:14.807Z,1.15
2017-12-26T03:07:43.425Z,1.27
2017-12-26T03:10:12.013Z,1.21
2017-12-26T03:12:40.896Z,1.18
2017-12-26T03:15:09.527Z,1.27
2017-12-26T03:17:38.992Z,1.33
2017-12-26T03:20:07.668Z,1.16
2017-12-26T03:22:36.364Z,1.17
2017-12-26T03:25:05.153Z,1.05
2017-12-26T03:27:33.933Z,0.90
2017-12-26T03:30:02.590Z,0.90
2017-12-26T03:32:31.304Z,0.88
2017-12-26T03:35:00.041Z,0.93
2017-12-26T03:37:29.366Z,0.80
2017-12-26T03:39:58.027Z,0.81
2017-12-26T03:42:27.497Z,0.87
2017-12-26T03:44:56.060Z,0.78
2017-12-26T03:47:24.954Z,0.74
2017-12-26T03:49:53.543Z,0.68
2017-12-26T03:52:22.218Z,0.81
2017-12-26T03:54:50.861Z,0.94
2017-12-26T03:57:20.619Z,0.87
2017-12-26T03:59:49.273Z,0.82
2017-12-26T04:02:17.991Z,0.79
2017-12-26T04:04:46.677Z,0.78
2017-12-26T04:07:15.364Z,0.80
2017-12-26T04:09:44.046Z,0.81
2017-12-26T04:12:12.944Z,0.89
2017-12-26T04:14:41.629Z,0.85
2017-12-26T04:17:10.296Z,0.76
2017-12-26T04:19:39.063Z,0.80
2017-12-26T04:22:07.785Z,0.78
2017-12-26T04:24:36.423Z,0.67
2017-12-26T04:27:05.916Z,0.63
2017-12-26T04:29:35.340Z,0.64
2017-12-26T04:32:04.063Z,0.65
2017-12-26T04:34:32.668Z,0.90
2017-12-26T04:37:01.336Z,0.87
2017-12-26T04:39:30.120Z,0.83
2017-12-26T04:41:58.819Z,0.76
2017-12-26T04:44:27.492Z,0.71
2017-12-26T04:46:56.178Z,0.64
2017-12-26T04:49:24.872Z,0.68
2017-12-26T04:51:53.544Z,0.72
2017-12-26T04:54:22.185Z,0.66
2017-12-26T04:56:51.803Z,0.72
2017-12-26T04:59:20.446Z,0.76
2017-12-26T05:01:49.215Z,0.86
2017-12-26T05:04:17.881Z,0.87
2017-12-26T05:06:46.549Z,1.09
2017-12-26T05:09:15.272Z,1.16
2017-12-26T05:11:43.956Z,1.33
2017-12-26T05:14:12.644Z,1.09
2017-12-26T05:16:41.301Z,0.73
2017-12-26T05:19:10.168Z,0.36
2017-12-26T05:21:39.622Z,0.38
2017-12-26T05:24:08.309Z,0.94
2017-12-26T05:26:37.038Z,0.30
2017-12-26T05:29:06.458Z,-0.15
2017-12-26T05:31:35.901Z,-0.07
2017-12-26T05:34:05.816Z,-0.18
2017-12-26T05:36:34.461Z,-0.37
2017-12-26T05:39:03.154Z,-0.43
2017-12-26T05:41:31.874Z,-0.15
2017-12-26T05:44:00.460Z,-0.12
2017-12-26T05:46:29.107Z,-0.13
2017-12-26T05:48:57.833Z,-0.19
2017-12-26T05:51:26.471Z,-0.35
2017-12-26T05:53:55.204Z,-0.40
2017-12-26T05:56:23.989Z,-0.13
2017-12-26T05:58:52.575Z,0.23
2017-12-26T06:01:21.163Z,-0.09
2017-12-26T06:03:49.948Z,-0.55
2017-12-26T06:06:18.528Z,-0.44
2017-12-26T06:08:47.214Z,-0.46
2017-12-26T06:11:16.410Z,-0.53
2017-12-26T06:13:44.996Z,-0.21
2017-12-26T06:16:13.668Z,0.21
2017-12-26T06:18:42.774Z,0.05
2017-12-26T06:21:11.430Z,-0.08
2017-12-26T06:23:40.147Z,-0.34
2017-12-26T06:26:08.832Z,-0.37
2017-12-26T06:28:37.420Z,-0.46
2017-12-26T06:31:06.009Z,-0.37
2017-12-26T06:33:34.714Z,0.16
2017-12-26T06:36:03.356Z,0.52
2017-12-26T06:38:32.049Z,0.29
2017-12-26T06:41:00.935Z,0.55
2017-12-26T06:43:29.587Z,0.54
2017-12-26T06:45:58.307Z,0.64
2017-12-26T06:48:27.348Z,0.63
2017-12-26T06:50:56.808Z,1.08
2017-12-26T06:53:25.481Z,1.06
2017-12-26T06:55:54.387Z,0.86
2017-12-26T06:58:23.020Z,1.05
2017-12-26T07:00:51.687Z,1.08
2017-12-26T07:03:20.754Z,1.16
2017-12-26T07:05:49.484Z,1.20
2017-12-26T07:08:18.072Z,1.53
2017-12-26T07:10:46.807Z,1.37
2017-12-26T07:13:16.265Z,1.12
2017-12-26T07:15:44.820Z,0.72
2017-12-26T07:18:13.428Z,0.94
2017-12-26T07:20:47.489Z,1.05
2017-12-26T07:23:16.945Z,0.99
2017-12-26T07:25:45.630Z,1.06
2017-12-26T07:28:14.254Z,0.96
2017-12-26T07:30:43.769Z,1.09
2017-12-26T07:33:13.217Z,1.36
2017-12-26T07:35:41.909Z,1.60
2017-12-26T07:38:10.902Z,1.83
2017-12-26T07:40:41.633Z,1.50
2017-12-26T07:43:10.307Z,1.51
2017-12-26T07:45:38.951Z,1.66
2017-12-26T07:48:08.411Z,2.08
2017-12-26T07:50:37.090Z,2.02
2017-12-26T07:53:05.994Z,2.05
2017-12-26T07:55:34.670Z,1.99
2017-12-26T07:58:03.313Z,1.19
2017-12-26T08:00:32.809Z,1.21
2017-12-26T08:03:02.269Z,1.37
2017-12-26T08:05:30.942Z,1.67
2017-12-26T08:07:59.687Z,1.56
2017-12-26T08:10:29.034Z,1.70
2017-12-26T08:12:57.622Z,1.84
2017-12-26T08:15:26.511Z,1.79
2017-12-26T08:17:55.197Z,2.22
2017-12-26T08:20:23.882Z,2.49
2017-12-26T08:22:53.600Z,2.23
2017-12-26T08:25:22.286Z,2.24
2017-12-26T08:27:50.925Z,2.18
2017-12-26T08:30:20.621Z,2.05
2017-12-26T08:32:50.075Z,2.61
2017-12-26T08:35:18.762Z,2.29
2017-12-26T08:37:47.368Z,1.98
2017-12-26T08:40:16.091Z,2.47
2017-12-26T08:42:44.818Z,2.14
2017-12-26T08:45:13.812Z,2.43
2017-12-26T08:47:42.444Z,2.22
2017-12-26T08:50:11.907Z,2.38
2017-12-26T08:52:40.692Z,2.63
2017-12-26T08:55:09.378Z,2.14
2017-12-26T08:57:37.956Z,2.22
2017-12-26T09:00:07.008Z,2.66
2017-12-26T09:02:36.455Z,2.31
2017-12-26T09:05:05.042Z,2.68
2017-12-26T09:07:34.134Z,2.61
2017-12-26T09:10:02.820Z,2.91
2017-12-26T09:12:31.407Z,3.08
2017-12-26T09:15:00.338Z,3.05
2017-12-26T09:17:29.756Z,3.51
2017-12-26T09:19:58.486Z,3.71
2017-12-26T09:22:27.477Z,3.77
2017-12-26T09:24:56.109Z,3.40
2017-12-26T09:27:25.575Z,3.30
2017-12-26T09:29:54.457Z,3.59
2017-12-26T09:32:23.822Z,3.95
2017-12-26T09:34:52.508Z,3.67
2017-12-26T09:37:21.184Z,3.49
2017-12-26T09:39:49.880Z,3.67
2017-12-26T09:42:18.566Z,3.46
2017-12-26T09:44:47.351Z,3.23
2017-12-26T09:47:15.994Z,3.77
2017-12-26T09:49:44.722Z,3.97
2017-12-26T09:52:13.455Z,4.57
2017-12-26T09:54:42.916Z,4.67
2017-12-26T09:57:11.537Z,4.70
2017-12-26T09:59:41.307Z,4.70
2017-12-26T10:02:09.994Z,4.79
2017-12-26T10:04:39.503Z,4.86
2017-12-26T10:07:08.183Z,5.27
2017-12-26T10:09:36.824Z,5.47
2017-12-26T10:12:06.312Z,5.52
2017-12-26T10:14:35.839Z,5.32
2017-12-26T10:17:04.567Z,5.28
2017-12-26T10:19:33.256Z,5.33
2017-12-26T10:22:02.292Z,5.36
2017-12-26T10:24:31.643Z,5.53
2017-12-26T10:27:00.232Z,5.99
2017-12-26T10:29:29.735Z,6.10
2017-12-26T10:31:58.426Z,5.96
2017-12-26T10:34:27.111Z,5.67
2017-12-26T10:36:55.789Z,5.06
2017-12-26T10:39:24.491Z,5.21
2017-12-26T10:41:53.058Z,4.88
2017-12-26T10:44:21.799Z,5.21
2017-12-26T10:46:51.255Z,5.57
2017-12-26T10:49:19.940Z,5.73
2017-12-26T10:51:48.933Z,5.57
2017-12-26T10:54:18.134Z,6.42
2017-12-26T10:56:46.819Z,6.15
2017-12-26T10:59:15.495Z,6.17
2017-12-26T11:01:44.192Z,6.55
2017-12-26T11:04:12.866Z,6.80
2017-12-26T11:06:41.969Z,6.69
2017-12-26T11:09:10.654Z,7.03
2017-12-26T11:11:39.341Z,6.89
2017-12-26T11:14:08.391Z,6.84
2017-12-26T11:16:37.034Z,7.70
2017-12-26T11:19:05.699Z,7.69
2017-12-26T11:21:34.443Z,7.47
2017-12-26T11:24:03.899Z,7.05
2017-12-26T11:26:32.585Z,7.13
2017-12-26T11:29:01.776Z,6.94
2017-12-26T11:31:30.417Z,7.38
2017-12-26T11:33:59.148Z,7.44
2017-12-26T11:36:27.943Z,7.57
2017-12-26T11:38:56.615Z,7.68
2017-12-26T11:41:25.309Z,7.01
2017-12-26T11:43:54.000Z,7.19
2017-12-26T11:46:22.668Z,6.34
2017-12-26T11:48:51.395Z,6.27
2017-12-26T11:51:20.013Z,7.40
2017-12-26T11:53:48.714Z,7.37
2017-12-26T11:56:17.393Z,7.35
2017-12-26T11:58:46.137Z,7.21
2017-12-26T12:01:14.865Z,7.23
2017-12-26T12:03:43.550Z,6.81
2017-12-26T12:06:12.237Z,6.25
2017-12-26T12:08:40.856Z,5.83
2017-12-26T12:11:10.321Z,6.22
2017-12-26T12:13:39.063Z,7.01
2017-12-26T12:16:08.515Z,7.21
2017-12-26T12:18:37.092Z,6.91
2017-12-26T12:21:05.845Z,7.39
2017-12-26T12:23:34.573Z,7.51
2017-12-26T12:26:03.258Z,7.45
2017-12-26T12:28:32.043Z,7.23
2017-12-26T12:31:00.691Z,7.45
2017-12-26T12:33:29.414Z,6.82
2017-12-26T12:35:58.100Z,6.56
2017-12-26T12:38:26.744Z,6.71
2017-12-26T12:40:55.392Z,6.82
2017-12-26T12:43:24.157Z,6.61
2017-12-26T12:45:52.843Z,5.82
2017-12-26T12:48:21.490Z,5.93
2017-12-26T12:50:50.080Z,5.90
2017-12-26T12:53:18.750Z,6.24
2017-12-26T12:55:48.201Z,6.50
2017-12-26T12:58:17.160Z,6.34
2017-12-26T13:00:45.878Z,6.35
2017-12-26T13:03:14.521Z,6.44
2017-12-26T13:05:43.214Z,6.79
2017-12-26T13:08:11.882Z,7.19
2017-12-26T13:10:41.346Z,7.03
2017-12-26T13:13:10.518Z,6.90
2017-12-26T13:15:39.224Z,6.98
2017-12-26T13:18:07.810Z,7.03
2017-12-26T13:20:36.706Z,7.34
2017-12-26T13:23:05.386Z,6.60
2017-12-26T13:25:34.077Z,7.06
2017-12-26T13:28:02.924Z,6.74
2017-12-26T13:30:31.646Z,6.66
2017-12-26T13:33:00.285Z,6.56
2017-12-26T13:35:29.779Z,6.56
2017-12-26T13:37:59.196Z,6.36
2017-12-26T13:40:27.926Z,6.48
2017-12-26T13:42:57.006Z,6.22
2017-12-26T13:45:25.715Z,6.16
2017-12-26T13:47:54.293Z,6.12
2017-12-26T13:50:22.982Z,5.94
2017-12-26T13:52:51.626Z,6.43
2017-12-26T13:55:20.349Z,6.68
2017-12-26T13:57:49.863Z,6.68
2017-12-26T14:00:18.605Z,6.66
2017-12-26T14:02:47.328Z,6.61
2017-12-26T14:05:16.265Z,6.49
2017-12-26T14:07:45.732Z,6.50
2017-12-26T14:10:14.307Z,6.49
2017-12-26T14:12:43.243Z,6.22
2017-12-26T14:15:12.658Z,6.04
2017-12-26T14:17:42.107Z,6.47
2017-12-26T14:20:11.100Z,6.41
2017-12-26T14:22:39.784Z,5.48
2017-12-26T14:25:08.472Z,6.18
2017-12-26T14:27:37.465Z,6.19
2017-12-26T14:30:06.143Z,6.06
2017-12-26T14:32:34.835Z,5.97
2017-12-26T14:35:03.529Z,5.41
2017-12-26T14:37:32.205Z,5.52
2017-12-26T14:40:00.885Z,5.87
2017-12-26T14:42:29.481Z,6.11
2017-12-26T14:44:58.175Z,6.06
2017-12-26T14:47:26.867Z,5.71
2017-12-26T14:49:55.636Z,6.08
2017-12-26T14:52:24.302Z,6.34
2017-12-26T14:54:52.994Z,5.98
2017-12-26T14:57:22.099Z,5.63
2017-12-26T14:59:50.685Z,5.73
2017-12-26T15:02:19.379Z,5.69
2017-12-26T15:04:48.257Z,5.51
2017-12-26T15:07:16.951Z,5.98
2017-12-26T15:09:45.574Z,5.62
2017-12-26T15:12:14.994Z,5.82
2017-12-26T15:14:43.714Z,5.64
2017-12-26T15:17:12.408Z,5.23
2017-12-26T15:19:41.401Z,5.66
2017-12-26T15:22:10.185Z,5.70
2017-12-26T15:24:38.772Z,5.86
2017-12-26T15:27:07.666Z,5.58
2017-12-26T15:29:36.339Z,5.58
2017-12-26T15:32:05.040Z,6.02
2017-12-26T15:34:33.822Z,6.22
2017-12-26T15:37:02.447Z,6.25
2017-12-26T15:39:31.807Z,6.02
2017-12-26T15:42:00.592Z,5.80
2017-12-26T15:44:29.277Z,5.21
2017-12-26T15:46:57.963Z,5.44
2017-12-26T15:49:27.111Z,5.71
2017-12-26T15:51:56.567Z,5.46
2017-12-26T15:54:25.197Z,5.86
2017-12-26T15:56:53.985Z,5.89
2017-12-26T15:59:23.445Z,6.05
2017-12-26T16:01:52.130Z,5.98
2017-12-26T16:04:21.220Z,5.57
2017-12-26T16:06:49.808Z,5.72
2017-12-26T16:09:18.368Z,5.57
2017-12-26T16:11:47.246Z,5.77
2017-12-26T16:14:15.914Z,5.95
2017-12-26T16:16:45.372Z,5.67
2017-12-26T16:19:14.098Z,5.46
2017-12-26T16:21:43.557Z,6.22
2017-12-26T16:24:12.276Z,5.89
2017-12-26T16:26:42.002Z,5.85
2017-12-26T16:29:15.098Z,5.68
2017-12-26T16:31:47.207Z,6.16
2017-12-26T16:34:15.892Z,6.61
2017-12-26T16:36:44.522Z,6.07
2017-12-26T16:39:14.185Z,6.12
2017-12-26T16:41:42.871Z,5.88
2017-12-26T16:44:11.557Z,5.84
2017-12-26T16:46:40.351Z,5.64
2017-12-26T16:49:09.038Z,5.50
2017-12-26T16:51:37.613Z,5.54
2017-12-26T16:54:06.715Z,5.85
2017-12-26T16:56:35.407Z,5.73
2017-12-26T16:59:04.081Z,5.81
2017-12-26T17:01:32.773Z,5.81
2017-12-26T17:04:01.457Z,5.88
2017-12-26T17:06:30.142Z,5.87
2017-12-26T17:09:15.106Z,5.88
2017-12-26T17:11:43.795Z,6.02
2017-12-26T17:14:12.481Z,6.16
2017-12-26T17:16:41.156Z,6.02
2017-12-26T17:19:09.852Z,6.13
2017-12-26T17:21:38.539Z,6.25
2017-12-26T17:24:07.421Z,6.15
2017-12-26T17:26:36.061Z,6.10
2017-12-26T17:29:04.692Z,5.81
2017-12-26T17:31:33.587Z,5.88
2017-12-26T17:34:02.164Z,5.64
2017-12-26T17:36:30.849Z,5.90
2017-12-26T17:38:59.536Z,5.99
2017-12-26T17:41:28.220Z,5.81
2017-12-26T17:43:56.904Z,5.59
2017-12-26T17:46:25.898Z,6.04
2017-12-26T17:48:54.537Z,6.28
2017-12-26T17:51:23.993Z,6.21
2017-12-26T17:53:52.724Z,6.06
2017-12-26T17:56:22.177Z,6.47
2017-12-26T17:58:50.862Z,6.88
2017-12-26T18:01:19.657Z,6.13
2017-12-26T18:03:48.342Z,6.20
2017-12-26T18:06:16.918Z,5.88
2017-12-26T18:08:45.604Z,5.81
2017-12-26T18:11:14.248Z,5.88
2017-12-26T18:13:42.940Z,5.81
2017-12-26T18:16:11.704Z,5.51
2017-12-26T18:18:41.190Z,5.45
2017-12-26T18:21:09.868Z,5.36
2017-12-26T18:23:38.638Z,5.79
2017-12-26T18:26:07.324Z,5.56
2017-12-26T18:31:09.512Z,5.57
2017-12-26T18:33:38.209Z,5.35
2017-12-26T18:36:06.768Z,5.47
2017-12-26T18:38:35.642Z,5.65
2017-12-26T18:41:04.352Z,5.75
2017-12-26T18:43:33.038Z,5.29
2017-12-26T18:46:02.031Z,5.30
2017-12-26T18:48:31.545Z,5.50
2017-12-26T18:51:00.630Z,5.32
2017-12-26T18:53:29.426Z,5.36
2017-12-26T18:55:58.063Z,5.42
2017-12-26T18:58:27.511Z,5.19
2017-12-26T19:00:56.673Z,5.28
2017-12-26T19:03:25.396Z,4.84
2017-12-26T19:05:54.182Z,5.36
2017-12-26T19:08:22.880Z,4.96
2017-12-26T19:10:51.547Z,4.89
2017-12-26T19:13:20.191Z,5.17
2017-12-26T19:15:49.848Z,5.10
2017-12-26T19:18:18.420Z,5.11
2017-12-26T19:20:47.116Z,5.00
2017-12-26T19:23:16.084Z,5.13
2017-12-26T19:25:44.751Z,5.03
2017-12-26T19:28:13.480Z,5.13
2017-12-26T19:30:42.265Z,4.97
2017-12-26T19:33:10.950Z,4.89
2017-12-26T19:35:39.529Z,4.70
2017-12-26T19:38:08.320Z,4.74
2017-12-26T19:40:37.007Z,4.85
2017-12-26T19:43:05.682Z,4.50
2017-12-26T19:45:34.587Z,4.86
2017-12-26T19:48:03.169Z,5.02
2017-12-26T19:50:31.848Z,5.17
2017-12-26T19:53:00.800Z,5.08
2017-12-26T19:55:29.526Z,5.12
2017-12-26T19:57:58.343Z,5.07
2017-12-26T20:00:27.413Z,5.12
2017-12-26T20:02:56.101Z,5.07
2017-12-26T20:05:24.740Z,5.05
2017-12-26T20:07:53.568Z,4.85
2017-12-26T20:10:22.200Z,4.69
2017-12-26T20:12:52.381Z,4.72
2017-12-26T20:15:21.062Z,4.37
2017-12-26T20:17:49.804Z,4.44
2017-12-26T20:20:18.532Z,4.44
2017-12-26T20:22:47.489Z,4.33
2017-12-26T20:25:16.157Z,4.31
2017-12-26T20:27:45.620Z,4.60
2017-12-26T20:30:14.296Z,4.63
2017-12-26T20:32:43.914Z,4.45
2017-12-26T20:35:12.599Z,4.37
2017-12-26T20:37:41.384Z,4.42
2017-12-26T20:40:10.063Z,4.49
2017-12-26T20:42:38.707Z,4.61
2017-12-26T20:45:08.195Z,4.64
2017-12-26T20:47:37.616Z,4.66
2017-12-26T20:50:06.285Z,4.86
2017-12-26T20:52:36.055Z,5.06
2017-12-26T20:55:04.694Z,3.95
2017-12-26T20:57:33.424Z,3.83
2017-12-26T21:00:02.417Z,4.07
2017-12-26T21:02:31.048Z,4.32
2017-12-26T21:05:00.516Z,4.24
2017-12-26T21:07:29.112Z,4.27
2017-12-26T21:09:57.847Z,4.29
2017-12-26T21:12:26.516Z,4.33
2017-12-26T21:14:56.211Z,4.46
2017-12-26T21:17:25.673Z,4.34
2017-12-26T21:19:54.359Z,4.18
2017-12-26T21:22:23.315Z,4.75
2017-12-26T21:24:52.008Z,4.58
2017-12-26T21:27:20.723Z,4.20
2017-12-26T21:29:49.412Z,4.18
2017-12-26T21:32:17.998Z,3.89
2017-12-26T21:34:46.582Z,3.91
2017-12-26T21:37:15.921Z,4.53
2017-12-26T21:39:45.380Z,4.24
2017-12-26T21:42:14.067Z,4.23
2017-12-26T21:44:43.051Z,3.89
2017-12-26T21:47:11.744Z,3.74
2017-12-26T21:49:40.386Z,3.73
2017-12-26T21:52:09.027Z,3.90
2017-12-26T21:54:37.701Z,3.92
2017-12-26T21:57:06.338Z,3.81
2017-12-26T21:59:35.827Z,3.86
2017-12-26T22:02:05.190Z,3.53
2017-12-26T22:04:33.882Z,3.60
2017-12-26T22:07:02.609Z,3.80
2017-12-26T22:09:32.027Z,3.86
2017-12-26T22:12:00.751Z,3.92
2017-12-26T22:14:29.484Z,3.88
2017-12-26T22:16:58.945Z,3.76
2017-12-26T22:19:27.630Z,3.44
2017-12-26T22:21:56.416Z,3.44
2017-12-26T22:24:25.058Z,3.21
2017-12-26T22:26:53.794Z,3.12
2017-12-26T22:29:22.472Z,3.10
2017-12-26T22:31:51.059Z,3.13
2017-12-26T22:34:19.704Z,3.20
2017-12-26T22:36:48.796Z,2.61
2017-12-26T22:39:17.522Z,2.91
2017-12-26T22:41:46.207Z,2.72
2017-12-26T22:44:15.200Z,3.02
2017-12-26T22:46:43.886Z,2.77
2017-12-26T22:49:12.472Z,2.67
2017-12-26T22:51:41.466Z,2.56
2017-12-26T22:54:10.152Z,2.84
2017-12-26T22:56:38.728Z,2.97
2017-12-26T22:59:12.814Z,2.91
2017-12-26T23:01:41.414Z,2.88
2017-12-26T23:04:10.141Z,2.89
2017-12-26T23:06:40.013Z,2.89
2017-12-26T23:09:08.651Z,3.03
2017-12-26T23:11:38.097Z,3.05
2017-12-26T23:14:12.359Z,2.98
2017-12-26T23:16:47.252Z,2.55
2017-12-26T23:19:16.037Z,2.41
2017-12-26T23:21:44.715Z,2.80
2017-12-26T23:27:22.342Z,2.61
2017-12-26T23:29:56.380Z,2.58
2017-12-26T23:32:30.668Z,2.50
2017-12-26T23:35:05.226Z,2.70
2017-12-26T23:37:40.120Z,3.05
2017-12-26T23:40:14.590Z,3.22
2017-12-26T23:42:49.571Z,3.47
2017-12-26T23:45:24.095Z,3.19
2017-12-26T23:47:58.307Z,2.88
2017-12-26T23:50:32.681Z,2.91
2017-12-26T23:53:07.661Z,3.27
2017-12-26T23:55:41.778Z,2.99
2017-12-26T23:58:16.091Z,3.21
